sensor_id;sensor_type;location;lat;lon;timestamp;pressure;altitude;pressure_sealevel;temperature;humidity
63447;BME280;49577;49.872;6.190;2023-08-17T00:02:20;99618.96;;;18.31;90.68
63447;BME280;49577;49.872;6.190;2023-08-17T00:04:45;99623.14;;;18.32;90.58
63447;BME280;49577;49.872;6.190;2023-08-17T00:07:10;99624.10;;;18.31;90.66
63447;BME280;49577;49.872;6.190;2023-08-17T00:09:36;99625.31;;;18.29;90.67
63447;BME280;49577;49.872;6.190;2023-08-17T00:12:01;99629.67;;;18.30;90.81
63447;BME280;49577;49.872;6.190;2023-08-17T00:14:27;99631.77;;;18.31;91.02
63447;BME280;49577;49.872;6.190;2023-08-17T00:16:52;99630.77;;;18.32;91.06
63447;BME280;49577;49.872;6.190;2023-08-17T00:19:17;99627.52;;;18.33;91.00
63447;BME280;49577;49.872;6.190;2023-08-17T00:21:44;99626.84;;;18.34;91.11
63447;BME280;49577;49.872;6.190;2023-08-17T00:24:10;99626.42;;;18.36;91.30
63447;BME280;49577;49.872;6.190;2023-08-17T00:26:35;99628.67;;;18.37;91.10
63447;BME280;49577;49.872;6.190;2023-08-17T00:29:01;99627.95;;;18.37;91.18
63447;BME280;49577;49.872;6.190;2023-08-17T00:31:26;99627.72;;;18.38;91.24
63447;BME280;49577;49.872;6.190;2023-08-17T00:33:51;99628.81;;;18.37;91.14
63447;BME280;49577;49.872;6.190;2023-08-17T00:36:17;99630.44;;;18.37;91.23
63447;BME280;49577;49.872;6.190;2023-08-17T00:38:42;99623.70;;;18.37;91.33
63447;BME280;49577;49.872;6.190;2023-08-17T00:41:07;99626.83;;;18.38;91.41
63447;BME280;49577;49.872;6.190;2023-08-17T00:43:32;99627.97;;;18.39;91.40
63447;BME280;49577;49.872;6.190;2023-08-17T00:45:58;99624.09;;;18.39;91.34
63447;BME280;49577;49.872;6.190;2023-08-17T00:48:24;99619.31;;;18.39;91.26
63447;BME280;49577;49.872;6.190;2023-08-17T00:50:50;99618.06;;;18.37;91.02
63447;BME280;49577;49.872;6.190;2023-08-17T00:53:18;99616.23;;;18.34;90.93
63447;BME280;49577;49.872;6.190;2023-08-17T00:55:44;99616.68;;;18.33;90.97
63447;BME280;49577;49.872;6.190;2023-08-17T00:58:09;99616.36;;;18.31;91.04
63447;BME280;49577;49.872;6.190;2023-08-17T01:00:35;99614.80;;;18.29;91.04
63447;BME280;49577;49.872;6.190;2023-08-17T01:03:00;99615.52;;;18.27;90.80
63447;BME280;49577;49.872;6.190;2023-08-17T01:05:25;99613.52;;;18.25;90.86
63447;BME280;49577;49.872;6.190;2023-08-17T01:07:51;99611.39;;;18.24;90.93
63447;BME280;49577;49.872;6.190;2023-08-17T01:10:16;99610.63;;;18.24;91.07
63447;BME280;49577;49.872;6.190;2023-08-17T01:15:37;99601.95;;;18.24;91.31
63447;BME280;49577;49.872;6.190;2023-08-17T01:18:21;99598.45;;;18.22;91.24
63447;BME280;49577;49.872;6.190;2023-08-17T01:20:49;99597.13;;;18.21;91.63
63447;BME280;49577;49.872;6.190;2023-08-17T01:23:15;99600.52;;;18.21;91.80
63447;BME280;49577;49.872;6.190;2023-08-17T01:25:41;99598.50;;;18.22;91.91
63447;BME280;49577;49.872;6.190;2023-08-17T01:28:06;99595.04;;;18.23;91.85
63447;BME280;49577;49.872;6.190;2023-08-17T01:30:38;99595.38;;;18.23;91.90
63447;BME280;49577;49.872;6.190;2023-08-17T01:33:08;99596.70;;;18.22;91.82
63447;BME280;49577;49.872;6.190;2023-08-17T01:35:38;99599.39;;;18.22;91.78
63447;BME280;49577;49.872;6.190;2023-08-17T01:38:10;99602.16;;;18.21;91.72
63447;BME280;49577;49.872;6.190;2023-08-17T01:40:37;99604.82;;;18.18;91.81
63447;BME280;49577;49.872;6.190;2023-08-17T01:43:03;99603.39;;;18.16;91.84
63447;BME280;49577;49.872;6.190;2023-08-17T01:45:29;99603.52;;;18.15;91.97
63447;BME280;49577;49.872;6.190;2023-08-17T01:47:57;99599.00;;;18.15;92.10
63447;BME280;49577;49.872;6.190;2023-08-17T01:50:22;99601.63;;;18.13;91.93
63447;BME280;49577;49.872;6.190;2023-08-17T01:52:48;99598.88;;;18.12;91.92
63447;BME280;49577;49.872;6.190;2023-08-17T01:55:15;99602.30;;;18.13;92.03
63447;BME280;49577;49.872;6.190;2023-08-17T01:57:40;99604.96;;;18.15;92.14
63447;BME280;49577;49.872;6.190;2023-08-17T02:00:07;99607.70;;;18.16;92.14
63447;BME280;49577;49.872;6.190;2023-08-17T02:02:35;99605.83;;;18.15;91.86
63447;BME280;49577;49.872;6.190;2023-08-17T02:05:01;99602.34;;;18.13;92.06
63447;BME280;49577;49.872;6.190;2023-08-17T02:07:26;99602.27;;;18.12;92.17
63447;BME280;49577;49.872;6.190;2023-08-17T02:09:51;99602.84;;;18.09;92.18
63447;BME280;49577;49.872;6.190;2023-08-17T02:12:16;99599.52;;;18.07;92.28
63447;BME280;49577;49.872;6.190;2023-08-17T02:14:42;99595.21;;;18.04;92.49
63447;BME280;49577;49.872;6.190;2023-08-17T02:17:07;99596.77;;;18.03;92.63
63447;BME280;49577;49.872;6.190;2023-08-17T02:19:33;99595.30;;;18.01;92.54
63447;BME280;49577;49.872;6.190;2023-08-17T02:21:58;99587.30;;;18.00;92.82
63447;BME280;49577;49.872;6.190;2023-08-17T02:24:24;99587.85;;;18.00;92.91
63447;BME280;49577;49.872;6.190;2023-08-17T02:26:50;99585.45;;;17.99;93.00
63447;BME280;49577;49.872;6.190;2023-08-17T02:29:15;99582.42;;;17.99;92.99
63447;BME280;49577;49.872;6.190;2023-08-17T02:31:40;99575.14;;;18.00;93.22
63447;BME280;49577;49.872;6.190;2023-08-17T02:34:06;99573.69;;;18.00;93.17
63447;BME280;49577;49.872;6.190;2023-08-17T02:36:31;99574.64;;;17.99;93.40
63447;BME280;49577;49.872;6.190;2023-08-17T02:38:57;99576.27;;;17.99;93.28
63447;BME280;49577;49.872;6.190;2023-08-17T02:41:22;99575.48;;;17.98;93.18
63447;BME280;49577;49.872;6.190;2023-08-17T02:43:48;99572.14;;;17.98;93.18
63447;BME280;49577;49.872;6.190;2023-08-17T02:46:13;99573.14;;;17.97;93.15
63447;BME280;49577;49.872;6.190;2023-08-17T02:48:39;99570.24;;;17.97;93.25
63447;BME280;49577;49.872;6.190;2023-08-17T02:51:04;99574.52;;;17.95;92.87
63447;BME280;49577;49.872;6.190;2023-08-17T02:53:29;99576.61;;;17.91;92.88
63447;BME280;49577;49.872;6.190;2023-08-17T02:55:54;99582.42;;;17.89;93.03
63447;BME280;49577;49.872;6.190;2023-08-17T02:58:20;99583.81;;;17.88;93.12
63447;BME280;49577;49.872;6.190;2023-08-17T03:00:45;99585.10;;;17.86;93.14
63447;BME280;49577;49.872;6.190;2023-08-17T03:03:10;99586.38;;;17.85;93.17
63447;BME280;49577;49.872;6.190;2023-08-17T03:05:36;99594.76;;;17.86;93.33
63447;BME280;49577;49.872;6.190;2023-08-17T03:08:01;99599.77;;;17.87;93.27
63447;BME280;49577;49.872;6.190;2023-08-17T03:10:26;99599.88;;;17.88;93.48
63447;BME280;49577;49.872;6.190;2023-08-17T03:12:52;99598.23;;;17.89;93.52
63447;BME280;49577;49.872;6.190;2023-08-17T03:15:17;99594.33;;;17.87;93.35
63447;BME280;49577;49.872;6.190;2023-08-17T03:17:42;99591.36;;;17.85;93.23
63447;BME280;49577;49.872;6.190;2023-08-17T03:20:08;99591.54;;;17.85;93.68
63447;BME280;49577;49.872;6.190;2023-08-17T03:22:34;99595.63;;;17.86;94.03
63447;BME280;49577;49.872;6.190;2023-08-17T03:25:00;99596.95;;;17.87;93.96
63447;BME280;49577;49.872;6.190;2023-08-17T03:27:25;99596.36;;;17.88;93.97
63447;BME280;49577;49.872;6.190;2023-08-17T03:29:51;99602.50;;;17.88;93.88
63447;BME280;49577;49.872;6.190;2023-08-17T03:32:16;99601.44;;;17.88;93.96
63447;BME280;49577;49.872;6.190;2023-08-17T03:34:42;99598.59;;;17.89;94.01
63447;BME280;49577;49.872;6.190;2023-08-17T03:37:07;99599.25;;;17.89;94.03
63447;BME280;49577;49.872;6.190;2023-08-17T03:39:33;99603.27;;;17.89;94.15
63447;BME280;49577;49.872;6.190;2023-08-17T03:41:58;99598.70;;;17.89;94.00
63447;BME280;49577;49.872;6.190;2023-08-17T03:44:23;99596.36;;;17.90;94.08
63447;BME280;49577;49.872;6.190;2023-08-17T03:46:49;99597.02;;;17.90;94.15
63447;BME280;49577;49.872;6.190;2023-08-17T03:49:14;99595.70;;;17.91;94.30
63447;BME280;49577;49.872;6.190;2023-08-17T03:51:39;99592.23;;;17.92;94.26
63447;BME280;49577;49.872;6.190;2023-08-17T03:54:05;99594.67;;;17.92;94.36
63447;BME280;49577;49.872;6.190;2023-08-17T03:56:30;99598.48;;;17.93;94.41
63447;BME280;49577;49.872;6.190;2023-08-17T03:58:55;99598.06;;;17.94;94.34
63447;BME280;49577;49.872;6.190;2023-08-17T04:01:21;99596.14;;;17.94;94.30
63447;BME280;49577;49.872;6.190;2023-08-17T04:03:46;99603.62;;;17.93;94.38
63447;BME280;49577;49.872;6.190;2023-08-17T04:06:11;99602.09;;;17.92;94.43
63447;BME280;49577;49.872;6.190;2023-08-17T04:08:37;99600.85;;;17.91;94.27
63447;BME280;49577;49.872;6.190;2023-08-17T04:11:04;99599.54;;;17.90;94.25
63447;BME280;49577;49.872;6.190;2023-08-17T04:13:29;99599.09;;;17.89;94.25
63447;BME280;49577;49.872;6.190;2023-08-17T04:15:55;99598.83;;;17.90;94.37
63447;BME280;49577;49.872;6.190;2023-08-17T04:18:20;99602.50;;;17.90;94.42
63447;BME280;49577;49.872;6.190;2023-08-17T04:20:45;99604.55;;;17.93;94.69
63447;BME280;49577;49.872;6.190;2023-08-17T04:23:10;99607.20;;;17.95;94.65
63447;BME280;49577;49.872;6.190;2023-08-17T04:25:36;99611.36;;;17.96;94.59
63447;BME280;49577;49.872;6.190;2023-08-17T04:28:01;99614.36;;;17.96;94.41
63447;BME280;49577;49.872;6.190;2023-08-17T04:30:26;99613.71;;;17.96;94.46
63447;BME280;49577;49.872;6.190;2023-08-17T04:32:52;99615.52;;;17.95;94.38
63447;BME280;49577;49.872;6.190;2023-08-17T04:35:20;99609.31;;;17.95;94.33
63447;BME280;49577;49.872;6.190;2023-08-17T04:37:46;99607.20;;;17.95;94.36
63447;BME280;49577;49.872;6.190;2023-08-17T04:40:12;99609.80;;;17.96;94.54
63447;BME280;49577;49.872;6.190;2023-08-17T04:42:38;99609.44;;;17.96;94.61
63447;BME280;49577;49.872;6.190;2023-08-17T04:45:03;99614.35;;;17.98;94.73
63447;BME280;49577;49.872;6.190;2023-08-17T04:47:29;99614.19;;;17.98;94.46
63447;BME280;49577;49.872;6.190;2023-08-17T04:49:54;99614.98;;;17.97;94.51
63447;BME280;49577;49.872;6.190;2023-08-17T04:52:19;99607.55;;;17.97;94.65
63447;BME280;49577;49.872;6.190;2023-08-17T04:54:44;99612.63;;;17.98;94.65
63447;BME280;49577;49.872;6.190;2023-08-17T04:57:10;99613.80;;;17.98;94.52
63447;BME280;49577;49.872;6.190;2023-08-17T04:59:36;99615.16;;;17.99;94.40
63447;BME280;49577;49.872;6.190;2023-08-17T05:02:01;99611.98;;;17.99;94.60
63447;BME280;49577;49.872;6.190;2023-08-17T05:04:26;99614.05;;;17.99;94.71
63447;BME280;49577;49.872;6.190;2023-08-17T05:06:51;99620.09;;;18.01;94.77
63447;BME280;49577;49.872;6.190;2023-08-17T05:09:17;99624.09;;;18.03;94.87
63447;BME280;49577;49.872;6.190;2023-08-17T05:11:42;99623.69;;;18.06;94.80
63447;BME280;49577;49.872;6.190;2023-08-17T05:14:07;99623.49;;;18.08;94.85
63447;BME280;49577;49.872;6.190;2023-08-17T05:16:33;99625.29;;;18.11;94.81
63447;BME280;49577;49.872;6.190;2023-08-17T05:18:58;99635.14;;;18.12;94.52
63447;BME280;49577;49.872;6.190;2023-08-17T05:21:25;99635.57;;;18.11;94.57
63447;BME280;49577;49.872;6.190;2023-08-17T05:23:50;99631.98;;;18.11;94.67
63447;BME280;49577;49.872;6.190;2023-08-17T05:26:15;99628.84;;;18.13;94.62
63447;BME280;49577;49.872;6.190;2023-08-17T05:28:41;99628.67;;;18.15;94.64
63447;BME280;49577;49.872;6.190;2023-08-17T05:31:08;99629.74;;;18.16;94.57
63447;BME280;49577;49.872;6.190;2023-08-17T05:33:33;99636.58;;;18.19;94.61
63447;BME280;49577;49.872;6.190;2023-08-17T05:35:59;99641.73;;;18.21;94.44
63447;BME280;49577;49.872;6.190;2023-08-17T05:38:24;99645.92;;;18.23;94.46
63447;BME280;49577;49.872;6.190;2023-08-17T05:40:56;99638.96;;;18.26;94.52
63447;BME280;49577;49.872;6.190;2023-08-17T05:43:22;99636.35;;;18.29;94.44
63447;BME280;49577;49.872;6.190;2023-08-17T05:45:47;99640.81;;;18.36;94.71
63447;BME280;49577;49.872;6.190;2023-08-17T05:48:12;99641.16;;;18.41;94.22
63447;BME280;49577;49.872;6.190;2023-08-17T05:50:41;99642.94;;;18.48;93.99
63447;BME280;49577;49.872;6.190;2023-08-17T05:53:06;99642.41;;;18.51;93.61
63447;BME280;49577;49.872;6.190;2023-08-17T05:55:31;99641.06;;;18.54;93.20
63447;BME280;49577;49.872;6.190;2023-08-17T05:57:57;99646.07;;;18.57;92.89
63447;BME280;49577;49.872;6.190;2023-08-17T06:00:22;99647.67;;;18.60;92.85
63447;BME280;49577;49.872;6.190;2023-08-17T06:02:48;99648.28;;;18.63;92.71
63447;BME280;49577;49.872;6.190;2023-08-17T06:05:16;99645.89;;;18.66;92.74
63447;BME280;49577;49.872;6.190;2023-08-17T06:07:41;99648.97;;;18.67;92.54
63447;BME280;49577;49.872;6.190;2023-08-17T06:10:07;99648.85;;;18.68;92.32
63447;BME280;49577;49.872;6.190;2023-08-17T06:12:32;99650.56;;;18.73;92.18
63447;BME280;49577;49.872;6.190;2023-08-17T06:14:58;99653.80;;;18.83;92.32
63447;BME280;49577;49.872;6.190;2023-08-17T06:17:23;99658.81;;;18.94;91.86
63447;BME280;49577;49.872;6.190;2023-08-17T06:19:48;99662.73;;;19.05;91.46
63447;BME280;49577;49.872;6.190;2023-08-17T06:22:14;99661.88;;;19.21;91.23
63447;BME280;49577;49.872;6.190;2023-08-17T06:24:39;99659.58;;;19.42;91.17
63447;BME280;49577;49.872;6.190;2023-08-17T06:27:04;99655.18;;;19.64;90.21
63447;BME280;49577;49.872;6.190;2023-08-17T06:29:30;99652.90;;;19.79;89.67
63447;BME280;49577;49.872;6.190;2023-08-17T06:31:55;99657.06;;;19.85;88.91
63447;BME280;49577;49.872;6.190;2023-08-17T06:34:20;99659.68;;;19.87;88.62
63447;BME280;49577;49.872;6.190;2023-08-17T06:37:01;99661.16;;;19.90;88.40
63447;BME280;49577;49.872;6.190;2023-08-17T06:39:26;99661.92;;;19.99;88.12
63447;BME280;49577;49.872;6.190;2023-08-17T06:41:52;99661.28;;;20.04;87.78
63447;BME280;49577;49.872;6.190;2023-08-17T06:44:18;99657.35;;;20.06;87.39
63447;BME280;49577;49.872;6.190;2023-08-17T06:46:43;99659.70;;;20.10;87.19
63447;BME280;49577;49.872;6.190;2023-08-17T06:49:09;99663.45;;;20.22;87.12
63447;BME280;49577;49.872;6.190;2023-08-17T06:51:34;99666.20;;;20.42;86.56
63447;BME280;49577;49.872;6.190;2023-08-17T06:53:59;99660.62;;;20.75;85.73
63447;BME280;49577;49.872;6.190;2023-08-17T06:56:25;99659.17;;;21.48;84.45
63447;BME280;49577;49.872;6.190;2023-08-17T06:58:50;99655.23;;;22.30;81.93
63447;BME280;49577;49.872;6.190;2023-08-17T07:01:15;99656.82;;;22.60;79.90
63447;BME280;49577;49.872;6.190;2023-08-17T07:03:41;99656.74;;;22.63;78.78
63447;BME280;49577;49.872;6.190;2023-08-17T07:06:06;99657.61;;;22.77;78.50
63447;BME280;49577;49.872;6.190;2023-08-17T07:08:32;99661.42;;;23.34;77.05
63447;BME280;49577;49.872;6.190;2023-08-17T07:10:58;99663.09;;;24.23;74.30
63447;BME280;49577;49.872;6.190;2023-08-17T07:13:23;99662.16;;;24.79;72.63
63447;BME280;49577;49.872;6.190;2023-08-17T07:15:48;99658.48;;;25.03;72.22
63447;BME280;49577;49.872;6.190;2023-08-17T07:18:13;99649.77;;;25.19;70.94
63447;BME280;49577;49.872;6.190;2023-08-17T07:20:39;99646.71;;;25.12;69.61
63447;BME280;49577;49.872;6.190;2023-08-17T07:23:04;99645.09;;;24.88;69.33
63447;BME280;49577;49.872;6.190;2023-08-17T07:25:30;99639.91;;;24.57;69.14
63447;BME280;49577;49.872;6.190;2023-08-17T07:27:55;99636.36;;;24.26;69.54
63447;BME280;49577;49.872;6.190;2023-08-17T07:30:20;99630.45;;;24.02;69.88
63447;BME280;49577;49.872;6.190;2023-08-17T07:32:46;99629.77;;;23.90;70.23
63447;BME280;49577;49.872;6.190;2023-08-17T07:35:11;99632.59;;;23.87;70.28
63447;BME280;49577;49.872;6.190;2023-08-17T07:37:36;99635.00;;;23.96;70.38
63447;BME280;49577;49.872;6.190;2023-08-17T07:40:02;99633.08;;;24.05;69.50
63447;BME280;49577;49.872;6.190;2023-08-17T07:42:30;99630.48;;;24.04;68.87
63447;BME280;49577;49.872;6.190;2023-08-17T07:44:57;99626.67;;;24.17;68.77
63447;BME280;49577;49.872;6.190;2023-08-17T07:47:22;99623.55;;;24.39;68.07
63447;BME280;49577;49.872;6.190;2023-08-17T07:49:48;99632.27;;;24.56;67.43
63447;BME280;49577;49.872;6.190;2023-08-17T07:52:13;99631.17;;;24.66;66.63
63447;BME280;49577;49.872;6.190;2023-08-17T07:54:38;99621.23;;;24.74;66.52
63447;BME280;49577;49.872;6.190;2023-08-17T07:57:03;99614.76;;;24.88;65.82
63447;BME280;49577;49.872;6.190;2023-08-17T07:59:29;99611.12;;;25.31;64.97
63447;BME280;49577;49.872;6.190;2023-08-17T08:01:54;99612.45;;;25.49;64.56
63447;BME280;49577;49.872;6.190;2023-08-17T08:04:20;99614.04;;;25.52;64.25
63447;BME280;49577;49.872;6.190;2023-08-17T08:06:46;99613.48;;;25.49;62.87
63447;BME280;49577;49.872;6.190;2023-08-17T08:09:12;99607.52;;;25.33;61.97
63447;BME280;49577;49.872;6.190;2023-08-17T08:11:37;99605.08;;;25.06;62.05
63447;BME280;49577;49.872;6.190;2023-08-17T08:14:03;99612.48;;;24.82;63.70
63447;BME280;49577;49.872;6.190;2023-08-17T08:16:29;99618.91;;;24.67;64.23
63447;BME280;49577;49.872;6.190;2023-08-17T08:18:57;99627.25;;;24.53;63.85
63447;BME280;49577;49.872;6.190;2023-08-17T08:21:23;99631.27;;;24.37;63.43
63447;BME280;49577;49.872;6.190;2023-08-17T08:23:48;99633.48;;;24.26;63.65
63447;BME280;49577;49.872;6.190;2023-08-17T08:26:13;99627.77;;;24.16;63.72
63447;BME280;49577;49.872;6.190;2023-08-17T08:28:39;99619.98;;;24.05;63.88
63447;BME280;49577;49.872;6.190;2023-08-17T08:31:05;99621.42;;;24.05;63.97
63447;BME280;49577;49.872;6.190;2023-08-17T08:33:30;99626.60;;;24.06;64.00
63447;BME280;49577;49.872;6.190;2023-08-17T08:35:55;99623.98;;;24.13;64.27
63447;BME280;49577;49.872;6.190;2023-08-17T08:38:21;99612.41;;;24.38;64.11
63447;BME280;49577;49.872;6.190;2023-08-17T08:40:47;99600.27;;;24.56;63.30
63447;BME280;49577;49.872;6.190;2023-08-17T08:43:13;99592.80;;;24.65;62.63
63447;BME280;49577;49.872;6.190;2023-08-17T08:45:41;99592.10;;;24.72;62.64
63447;BME280;49577;49.872;6.190;2023-08-17T08:48:08;99599.64;;;24.86;62.85
63447;BME280;49577;49.872;6.190;2023-08-17T08:50:35;99608.61;;;25.18;62.05
63447;BME280;49577;49.872;6.190;2023-08-17T08:53:02;99603.89;;;26.49;59.03
63447;BME280;49577;49.872;6.190;2023-08-17T08:55:34;99602.64;;;27.50;56.63
63447;BME280;49577;49.872;6.190;2023-08-17T08:58:02;99599.61;;;27.59;55.20
63447;BME280;49577;49.872;6.190;2023-08-17T09:00:29;99605.95;;;27.29;54.83
63447;BME280;49577;49.872;6.190;2023-08-17T09:02:55;99600.45;;;26.92;55.35
63447;BME280;49577;49.872;6.190;2023-08-17T09:05:21;99595.80;;;26.65;55.65
63447;BME280;49577;49.872;6.190;2023-08-17T09:07:48;99595.46;;;26.40;56.24
63447;BME280;49577;49.872;6.190;2023-08-17T09:10:14;99598.38;;;26.18;56.29
63447;BME280;49577;49.872;6.190;2023-08-17T09:12:41;99603.27;;;25.99;56.56
63447;BME280;49577;49.872;6.190;2023-08-17T09:15:07;99611.63;;;25.90;56.59
63447;BME280;49577;49.872;6.190;2023-08-17T09:17:32;99618.69;;;25.84;57.04
63447;BME280;49577;49.872;6.190;2023-08-17T09:20:01;99618.64;;;25.79;57.09
63447;BME280;49577;49.872;6.190;2023-08-17T09:25:05;99621.73;;;25.59;58.09
63447;BME280;49577;49.872;6.190;2023-08-17T09:27:31;99626.44;;;25.37;57.94
63447;BME280;49577;49.872;6.190;2023-08-17T09:30:04;99623.77;;;25.22;58.48
63447;BME280;49577;49.872;6.190;2023-08-17T09:32:31;99621.52;;;25.12;58.64
63447;BME280;49577;49.872;6.190;2023-08-17T09:34:56;99621.87;;;25.03;58.95
63447;BME280;49577;49.872;6.190;2023-08-17T09:37:22;99620.91;;;24.89;59.02
63447;BME280;49577;49.872;6.190;2023-08-17T09:39:47;99624.67;;;24.83;59.42
63447;BME280;49577;49.872;6.190;2023-08-17T09:42:14;99625.23;;;24.83;59.92
63447;BME280;49577;49.872;6.190;2023-08-17T09:44:41;99625.65;;;24.86;59.82
63447;BME280;49577;49.872;6.190;2023-08-17T09:47:07;99624.41;;;24.92;59.67
63447;BME280;49577;49.872;6.190;2023-08-17T09:49:33;99620.06;;;24.99;59.92
63447;BME280;49577;49.872;6.190;2023-08-17T09:52:01;99620.20;;;25.02;59.74
63447;BME280;49577;49.872;6.190;2023-08-17T09:54:30;99619.91;;;25.00;59.57
63447;BME280;49577;49.872;6.190;2023-08-17T09:56:58;99623.07;;;24.98;60.07
63447;BME280;49577;49.872;6.190;2023-08-17T09:59:23;99629.84;;;24.99;60.02
63447;BME280;49577;49.872;6.190;2023-08-17T10:01:50;99634.09;;;25.08;59.56
63447;BME280;49577;49.872;6.190;2023-08-17T10:04:23;99638.63;;;25.31;59.42
63447;BME280;49577;49.872;6.190;2023-08-17T10:06:51;99633.38;;;25.58;59.16
63447;BME280;49577;49.872;6.190;2023-08-17T10:09:21;99628.51;;;25.84;58.58
63447;BME280;49577;49.872;6.190;2023-08-17T10:11:51;99629.48;;;26.04;58.25
63447;BME280;49577;49.872;6.190;2023-08-17T10:14:22;99632.34;;;26.29;57.78
63447;BME280;49577;49.872;6.190;2023-08-17T10:16:53;99639.63;;;26.58;56.97
63447;BME280;49577;49.872;6.190;2023-08-17T10:19:52;99641.48;;;26.80;56.05
63447;BME280;49577;49.872;6.190;2023-08-17T10:24:57;99633.83;;;27.71;53.72
63447;BME280;49577;49.872;6.190;2023-08-17T10:27:24;99635.76;;;28.91;51.58
63447;BME280;49577;49.872;6.190;2023-08-17T10:29:50;99636.35;;;30.07;49.01
63447;BME280;49577;49.872;6.190;2023-08-17T10:32:16;99639.91;;;31.03;46.95
63447;BME280;49577;49.872;6.190;2023-08-17T10:34:42;99640.64;;;31.60;45.77
63447;BME280;49577;49.872;6.190;2023-08-17T10:37:08;99642.84;;;31.63;45.39
63447;BME280;49577;49.872;6.190;2023-08-17T10:39:34;99645.36;;;31.62;44.76
63447;BME280;49577;49.872;6.190;2023-08-17T10:42:02;99639.73;;;31.54;44.66
63447;BME280;49577;49.872;6.190;2023-08-17T10:44:47;99636.29;;;31.24;44.71
63447;BME280;49577;49.872;6.190;2023-08-17T10:47:32;99637.58;;;30.89;45.22
63447;BME280;49577;49.872;6.190;2023-08-17T10:54:56;99627.91;;;30.47;44.79
63447;BME280;49577;49.872;6.190;2023-08-17T10:57:25;99629.44;;;30.94;44.38
63447;BME280;49577;49.872;6.190;2023-08-17T11:02:56;99631.34;;;30.56;44.24
63447;BME280;49577;49.872;6.190;2023-08-17T11:05:47;99640.89;;;30.22;44.93
63447;BME280;49577;49.872;6.190;2023-08-17T11:10:57;99648.89;;;29.64;46.09
63447;BME280;49577;49.872;6.190;2023-08-17T11:13:24;99648.34;;;29.70;46.06
63447;BME280;49577;49.872;6.190;2023-08-17T11:15:52;99645.06;;;29.85;46.11
63447;BME280;49577;49.872;6.190;2023-08-17T11:18:17;99643.67;;;29.98;45.82
63447;BME280;49577;49.872;6.190;2023-08-17T11:20:43;99644.46;;;30.42;45.49
63447;BME280;49577;49.872;6.190;2023-08-17T11:23:09;99638.13;;;31.13;44.56
63447;BME280;49577;49.872;6.190;2023-08-17T11:25:36;99634.45;;;31.28;44.31
63447;BME280;49577;49.872;6.190;2023-08-17T11:28:03;99631.07;;;31.35;43.80
63447;BME280;49577;49.872;6.190;2023-08-17T11:30:29;99630.17;;;31.50;43.57
63447;BME280;49577;49.872;6.190;2023-08-17T11:32:56;99627.98;;;32.32;42.80
63447;BME280;49577;49.872;6.190;2023-08-17T11:35:21;99618.48;;;32.71;41.85
63447;BME280;49577;49.872;6.190;2023-08-17T11:37:48;99611.60;;;32.73;41.37
63447;BME280;49577;49.872;6.190;2023-08-17T11:40:14;99607.34;;;33.20;40.50
63447;BME280;49577;49.872;6.190;2023-08-17T11:42:40;99603.98;;;33.38;40.12
63447;BME280;49577;49.872;6.190;2023-08-17T11:45:06;99593.45;;;33.87;39.43
63447;BME280;49577;49.872;6.190;2023-08-17T11:47:38;99586.47;;;34.35;38.61
63447;BME280;49577;49.872;6.190;2023-08-17T11:50:05;99584.11;;;34.21;38.53
63447;BME280;49577;49.872;6.190;2023-08-17T11:52:32;99584.02;;;33.65;39.37
63447;BME280;49577;49.872;6.190;2023-08-17T11:55:08;99577.21;;;32.92;39.85
63447;BME280;49577;49.872;6.190;2023-08-17T11:57:37;99577.59;;;32.13;40.89
63447;BME280;49577;49.872;6.190;2023-08-17T12:00:04;99574.61;;;31.43;41.86
63447;BME280;49577;49.872;6.190;2023-08-17T12:02:35;99573.11;;;30.95;42.74
63447;BME280;49577;49.872;6.190;2023-08-17T12:05:03;99569.08;;;30.67;43.53
63447;BME280;49577;49.872;6.190;2023-08-17T12:07:32;99567.02;;;30.56;43.66
63447;BME280;49577;49.872;6.190;2023-08-17T12:09:57;99567.65;;;30.50;43.83
63447;BME280;49577;49.872;6.190;2023-08-17T12:12:22;99560.44;;;30.51;44.24
63447;BME280;49577;49.872;6.190;2023-08-17T12:14:48;99559.41;;;30.64;44.26
63447;BME280;49577;49.872;6.190;2023-08-17T12:17:18;99551.50;;;30.72;43.94
63447;BME280;49577;49.872;6.190;2023-08-17T12:19:44;99545.94;;;30.82;44.05
63447;BME280;49577;49.872;6.190;2023-08-17T12:22:13;99542.89;;;31.02;44.11
63447;BME280;49577;49.872;6.190;2023-08-17T12:24:38;99544.77;;;31.29;43.59
63447;BME280;49577;49.872;6.190;2023-08-17T12:27:05;99545.63;;;31.36;43.05
63447;BME280;49577;49.872;6.190;2023-08-17T12:29:31;99550.59;;;31.34;42.77
63447;BME280;49577;49.872;6.190;2023-08-17T12:31:57;99550.95;;;31.14;42.67
63447;BME280;49577;49.872;6.190;2023-08-17T12:34:23;99552.89;;;31.06;42.62
63447;BME280;49577;49.872;6.190;2023-08-17T12:36:49;99549.13;;;31.05;42.37
63447;BME280;49577;49.872;6.190;2023-08-17T12:39:15;99543.36;;;31.11;42.42
63447;BME280;49577;49.872;6.190;2023-08-17T12:41:41;99536.63;;;31.26;42.34
63447;BME280;49577;49.872;6.190;2023-08-17T12:44:08;99537.16;;;31.38;42.43
63447;BME280;49577;49.872;6.190;2023-08-17T12:46:34;99532.43;;;31.46;42.21
63447;BME280;49577;49.872;6.190;2023-08-17T12:49:00;99525.37;;;31.36;41.98
63447;BME280;49577;49.872;6.190;2023-08-17T12:51:25;99519.02;;;31.21;42.38
63447;BME280;49577;49.872;6.190;2023-08-17T12:53:50;99520.86;;;31.27;42.76
63447;BME280;49577;49.872;6.190;2023-08-17T12:56:16;99521.89;;;31.29;42.53
63447;BME280;49577;49.872;6.190;2023-08-17T12:58:41;99520.80;;;31.42;42.09
63447;BME280;49577;49.872;6.190;2023-08-17T13:01:06;99522.13;;;31.43;42.05
63447;BME280;49577;49.872;6.190;2023-08-17T13:03:32;99516.86;;;31.44;42.23
63447;BME280;49577;49.872;6.190;2023-08-17T13:05:57;99518.04;;;31.51;42.44
63447;BME280;49577;49.872;6.190;2023-08-17T13:08:22;99520.11;;;31.68;42.35
63447;BME280;49577;49.872;6.190;2023-08-17T13:10:48;99523.35;;;31.63;42.02
63447;BME280;49577;49.872;6.190;2023-08-17T13:13:13;99518.41;;;31.58;42.20
63447;BME280;49577;49.872;6.190;2023-08-17T13:15:39;99510.41;;;31.56;42.49